Time,TemperatureF,DewpointF,PressureIn,WindDirection,WindDirectionDegrees,WindSpeedMPH,WindSpeedGustMPH,Humidity,HourlyPrecipIn,Conditions,Clouds,dailyrainin,SolarRadiationWatts/m^2,SoftwareType,DateUTC
2013-05-17 00:03:00,64.0,29.0,-100.00,East,82,8.0,16.0,27,0.00,,,0.00,0.000000,,2013-05-17 05:03:00,
2013-05-17 00:32:00,61.0,29.0,-100.00,East,87,7.0,12.0,30,0.00,,,0.00,0.000000,,2013-05-17 05:32:00,
2013-05-17 00:43:00,61.0,29.0,-100.00,East,87,7.0,12.0,30,0.00,,,0.00,0.000000,,2013-05-17 05:43:00,
2013-05-17 00:52:00,61.0,29.0,-100.00,East,87,7.0,12.0,30,0.00,,,0.00,0.000000,,2013-05-17 05:52:00,
2013-05-17 01:02:00,61.0,29.0,-100.00,East,87,7.0,12.0,30,0.00,,,0.00,0.000000,,2013-05-17 06:02:00,
2013-05-17 01:32:00,60.0,28.0,-100.00,ENE,72,7.0,11.0,29,0.00,,,0.00,0.000000,,2013-05-17 06:32:00,
2013-05-17 01:42:00,60.0,28.0,-100.00,ENE,72,7.0,11.0,29,0.00,,,0.00,0.000000,,2013-05-17 06:42:00,
2013-05-17 01:52:00,60.0,28.0,-100.00,ENE,72,7.0,11.0,29,0.00,,,0.00,0.000000,,2013-05-17 06:52:00,
2013-05-17 02:02:00,60.0,28.0,-100.00,ENE,72,7.0,11.0,29,0.00,,,0.00,0.000000,,2013-05-17 07:02:00,
2013-05-17 02:32:00,59.0,29.0,-100.00,ENE,66,8.0,12.0,32,0.00,,,0.00,0.000000,,2013-05-17 07:32:00,
2013-05-17 02:43:00,59.0,29.0,-100.00,ENE,66,8.0,12.0,32,0.00,,,0.00,0.000000,,2013-05-17 07:43:00,
2013-05-17 02:53:00,59.0,29.0,-100.00,ENE,66,8.0,12.0,32,0.00,,,0.00,0.000000,,2013-05-17 07:53:00,
2013-05-17 03:02:00,59.0,29.0,-100.00,ENE,66,8.0,12.0,32,0.00,,,0.00,0.000000,,2013-05-17 08:02:00,
2013-05-17 03:34:00,53.0,35.0,-100.00,NE,42,7.0,13.0,50,0.00,,,0.00,0.000000,,2013-05-17 08:34:00,
2013-05-17 03:43:00,53.0,35.0,-100.00,NE,42,7.0,13.0,50,0.00,,,0.00,0.000000,,2013-05-17 08:43:00,
2013-05-17 03:52:00,53.0,35.0,-100.00,NE,42,7.0,13.0,50,0.00,,,0.00,0.000000,,2013-05-17 08:52:00,
2013-05-17 04:02:00,53.0,35.0,-100.00,NE,42,7.0,13.0,50,0.00,,,0.00,0.000000,,2013-05-17 09:02:00,
2013-05-17 04:33:00,51.0,34.0,-100.00,NE,48,7.0,12.0,52,0.00,,,0.00,0.000000,,2013-05-17 09:33:00,
2013-05-17 04:42:00,51.0,34.0,-100.00,NE,48,7.0,12.0,52,0.00,,,0.00,0.000000,,2013-05-17 09:42:00,
2013-05-17 04:53:00,51.0,34.0,-100.00,NE,48,7.0,12.0,52,0.00,,,0.00,0.000000,,2013-05-17 09:53:00,
2013-05-17 05:03:00,51.0,34.0,-100.00,NE,48,7.0,12.0,52,0.00,,,0.00,0.000000,,2013-05-17 10:03:00,
2013-05-17 05:33:00,50.0,34.0,-100.00,NE,52,7.0,15.0,53,0.00,,,0.00,0.000000,,2013-05-17 10:33:00,
2013-05-17 05:42:00,50.0,34.0,-100.00,NE,52,7.0,15.0,53,0.00,,,0.00,0.000000,,2013-05-17 10:42:00,
2013-05-17 05:54:00,50.0,34.0,-100.00,NE,52,7.0,15.0,53,0.00,,,0.00,0.000000,,2013-05-17 10:54:00,
2013-05-17 06:02:00,50.0,34.0,-100.00,NE,52,7.0,15.0,53,0.00,,,0.00,0.000000,,2013-05-17 11:02:00,
2013-05-17 06:34:00,50.0,34.0,-100.00,ENE,72,10.0,14.0,54,0.00,,,0.00,1.000000,,2013-05-17 11:34:00,
2013-05-17 06:42:00,50.0,34.0,-100.00,ENE,72,10.0,14.0,54,0.00,,,0.00,1.000000,,2013-05-17 11:42:00,
2013-05-17 06:53:00,50.0,34.0,-100.00,ENE,72,10.0,14.0,54,0.00,,,0.00,1.000000,,2013-05-17 11:53:00,
2013-05-17 07:03:00,50.0,34.0,-100.00,ENE,72,10.0,14.0,54,0.00,,,0.00,1.000000,,2013-05-17 12:03:00,
2013-05-17 07:33:00,51.0,35.0,-100.00,ENE,60,8.0,14.0,54,0.00,,,0.00,29.000000,,2013-05-17 12:33:00,
2013-05-17 07:43:00,51.0,35.0,-100.00,ENE,60,8.0,14.0,54,0.00,,,0.00,29.000000,,2013-05-17 12:43:00,
2013-05-17 07:53:00,51.0,35.0,-100.00,ENE,60,8.0,14.0,54,0.00,,,0.00,29.000000,,2013-05-17 12:53:00,
2013-05-17 08:03:00,51.0,35.0,-100.00,ENE,60,8.0,14.0,54,0.00,,,0.00,29.000000,,2013-05-17 13:03:00,
2013-05-17 08:33:00,54.0,36.0,-100.00,ENE,72,10.0,15.0,51,0.00,,,0.00,142.000000,,2013-05-17 13:33:00,
2013-05-17 08:42:00,54.0,36.0,-100.00,ENE,72,10.0,15.0,51,0.00,,,0.00,142.000000,,2013-05-17 13:42:00,
2013-05-17 08:52:00,54.0,36.0,-100.00,ENE,72,10.0,15.0,51,0.00,,,0.00,142.000000,,2013-05-17 13:52:00,
2013-05-17 09:02:00,54.0,36.0,-100.00,ENE,72,10.0,15.0,51,0.00,,,0.00,142.000000,,2013-05-17 14:02:00,
2013-05-17 09:34:00,57.0,38.0,-100.00,ENE,69,10.0,15.0,49,0.00,,,0.00,193.000000,,2013-05-17 14:34:00,
2013-05-17 09:43:00,57.0,38.0,-100.00,ENE,69,10.0,15.0,49,0.00,,,0.00,193.000000,,2013-05-17 14:43:00,
2013-05-17 09:53:00,57.0,38.0,-100.00,ENE,69,10.0,15.0,49,0.00,,,0.00,193.000000,,2013-05-17 14:53:00,
2013-05-17 10:03:00,57.0,38.0,-100.00,ENE,69,10.0,15.0,49,0.00,,,0.00,193.000000,,2013-05-17 15:03:00,
2013-05-17 10:37:00,63.0,41.0,-100.00,East,85,12.0,16.0,45,0.00,,,0.00,498.000000,,2013-05-17 15:37:00,
2013-05-17 10:47:00,63.0,41.0,-100.00,East,85,12.0,16.0,45,0.00,,,0.00,498.000000,,2013-05-17 15:47:00,
2013-05-17 10:57:00,63.0,41.0,-100.00,East,85,12.0,16.0,45,0.00,,,0.00,498.000000,,2013-05-17 15:57:00,
2013-05-17 11:07:00,63.0,41.0,-100.00,East,85,12.0,16.0,45,0.00,,,0.00,498.000000,,2013-05-17 16:07:00,
2013-05-17 11:08:00,67.0,44.0,-100.00,East,99,11.0,20.0,44,0.00,,,0.00,859.000000,,2013-05-17 16:08:00,
2013-05-17 11:37:00,67.0,44.0,-100.00,East,99,11.0,20.0,44,0.00,,,0.00,859.000000,,2013-05-17 16:37:00,
2013-05-17 12:08:00,68.0,46.0,-100.00,ESE,105,11.0,20.0,46,0.00,,,0.00,832.000000,,2013-05-17 17:08:00,
2013-05-17 12:40:00,68.0,-99.9,-100.00,ESE,105,11.0,20.0,46,0.00,,,0.00,832.000000,,2013-05-17 17:40:00,
2013-05-17 12:49:00,68.0,46.0,-100.00,ESE,105,11.0,20.0,46,0.00,,,0.00,832.000000,,2013-05-17 17:49:00,
2013-05-17 13:00:00,68.0,46.0,-100.00,ESE,105,11.0,20.0,46,0.00,,,0.00,832.000000,,2013-05-17 18:00:00,
2013-05-17 13:08:00,68.0,48.0,-100.00,ESE,113,11.0,22.0,48,0.00,,,0.00,553.000000,,2013-05-17 18:08:00,
2013-05-17 13:40:00,68.0,-99.9,-100.00,ESE,113,11.0,22.0,48,0.00,,,0.00,553.000000,,2013-05-17 18:40:00,
2013-05-17 13:50:00,-999.0,-99.9,-100.00,ESE,113,11.0,22.0,48,0.00,,,0.00,553.000000,,2013-05-17 18:50:00,
2013-05-17 14:00:00,68.0,-99.9,-100.00,ESE,113,11.0,22.0,48,0.00,,,0.00,553.000000,,2013-05-17 19:00:00,
2013-05-17 14:08:00,67.0,48.0,-100.00,SE,124,9.0,19.0,50,0.00,,,0.00,339.000000,,2013-05-17 19:08:00,
2013-05-17 14:40:00,67.0,48.0,-100.00,SE,124,9.0,19.0,50,0.00,,,0.00,339.000000,,2013-05-17 19:40:00,
2013-05-17 14:51:00,67.0,48.0,-100.00,SE,124,9.0,19.0,50,0.00,,,0.00,339.000000,,2013-05-17 19:51:00,
2013-05-17 15:01:00,-999.0,-99.9,-100.00,SE,124,9.0,19.0,50,0.00,,,0.00,339.000000,,2013-05-17 20:01:00,
2013-05-17 15:40:00,67.0,49.0,-100.00,SSE,158,10.0,16.0,52,0.00,,,0.00,272.000000,,2013-05-17 20:40:00,
2013-05-17 15:50:00,67.0,49.0,-100.00,SSE,158,10.0,16.0,52,0.00,,,0.00,272.000000,,2013-05-17 20:50:00,
2013-05-17 15:58:00,67.0,49.0,-100.00,SSE,158,10.0,16.0,52,0.00,,,0.00,272.000000,,2013-05-17 20:58:00,
2013-05-17 16:07:00,67.0,49.0,-100.00,SSE,158,10.0,16.0,52,0.00,,,0.00,272.000000,,2013-05-17 21:07:00,
2013-05-17 16:39:00,66.0,50.0,-100.00,SSE,160,10.0,18.0,56,0.00,,,0.00,232.000000,,2013-05-17 21:39:00,
2013-05-17 16:49:00,66.0,50.0,-100.00,SSE,160,10.0,18.0,56,0.00,,,0.00,232.000000,,2013-05-17 21:49:00,
2013-05-17 16:58:00,66.0,50.0,-100.00,SSE,160,10.0,18.0,56,0.00,,,0.00,232.000000,,2013-05-17 21:58:00,
2013-05-17 17:07:00,66.0,50.0,-100.00,SSE,160,10.0,18.0,56,0.00,,,0.00,232.000000,,2013-05-17 22:07:00,
2013-05-17 17:38:00,64.0,49.0,-100.00,SSE,150,9.0,15.0,59,0.00,,,0.00,141.000000,,2013-05-17 22:38:00,
2013-05-17 17:47:00,64.0,49.0,-100.00,SSE,150,9.0,15.0,59,0.00,,,0.00,141.000000,,2013-05-17 22:47:00,
2013-05-17 17:55:00,64.0,49.0,-100.00,SSE,150,9.0,15.0,59,0.00,,,0.00,141.000000,,2013-05-17 22:55:00,
2013-05-17 18:04:00,64.0,49.0,-100.00,SSE,150,9.0,15.0,59,0.00,,,0.00,141.000000,,2013-05-17 23:04:00,
2013-05-17 18:38:00,61.0,52.0,-100.00,SSE,152,8.0,16.0,73,0.00,,,0.00,68.000000,,2013-05-17 23:38:00,
2013-05-17 18:47:00,61.0,52.0,-100.00,SSE,152,8.0,16.0,73,0.00,,,0.00,68.000000,,2013-05-17 23:47:00,
2013-05-17 18:54:00,61.0,52.0,-100.00,SSE,152,8.0,16.0,73,0.00,,,0.00,68.000000,,2013-05-17 23:54:00,
2013-05-17 19:02:00,61.0,52.0,-100.00,SSE,152,8.0,16.0,73,0.00,,,0.00,68.000000,,2013-05-18 00:02:00,
2013-05-17 19:34:00,60.0,54.0,-100.00,ESE,118,6.0,12.0,80,0.00,,,0.00,45.000000,,2013-05-18 00:34:00,
2013-05-17 19:45:00,60.0,54.0,-100.00,ESE,118,6.0,12.0,80,0.00,,,0.00,45.000000,,2013-05-18 00:45:00,
2013-05-17 19:54:00,60.0,54.0,-100.00,ESE,118,6.0,12.0,80,0.00,,,0.00,45.000000,,2013-05-18 00:54:00,
2013-05-17 20:02:00,60.0,54.0,-100.00,ESE,118,6.0,12.0,80,0.00,,,0.00,45.000000,,2013-05-18 01:02:00,
2013-05-17 20:32:00,60.0,53.0,-100.00,ESE,104,8.0,13.0,78,0.00,,,0.00,23.000000,,2013-05-18 01:32:00,
2013-05-17 20:43:00,60.0,53.0,-100.00,ESE,104,8.0,13.0,78,0.00,,,0.00,23.000000,,2013-05-18 01:43:00,
2013-05-17 20:52:00,60.0,53.0,-100.00,ESE,104,8.0,13.0,78,0.00,,,0.00,23.000000,,2013-05-18 01:52:00,
2013-05-17 21:02:00,60.0,53.0,-100.00,ESE,104,8.0,13.0,78,0.00,,,0.00,23.000000,,2013-05-18 02:02:00,
2013-05-17 21:32:00,59.0,53.0,-100.00,East,90,12.0,16.0,80,0.00,,,0.00,2.000000,,2013-05-18 02:32:00,
2013-05-17 21:43:00,59.0,53.0,-100.00,East,90,12.0,16.0,80,0.00,,,0.00,2.000000,,2013-05-18 02:43:00,
2013-05-17 21:54:00,59.0,53.0,-100.00,East,90,12.0,16.0,80,0.00,,,0.00,2.000000,,2013-05-18 02:54:00,
2013-05-17 22:02:00,59.0,53.0,-100.00,East,90,12.0,16.0,80,0.00,,,0.00,2.000000,,2013-05-18 03:02:00,
2013-05-17 22:33:00,58.0,53.0,-100.00,ESE,102,9.0,20.0,84,0.00,,,0.00,0.000000,,2013-05-18 03:33:00,
2013-05-17 22:43:00,58.0,53.0,-100.00,ESE,102,9.0,20.0,84,0.00,,,0.00,0.000000,,2013-05-18 03:43:00,
2013-05-17 22:53:00,58.0,53.0,-100.00,ESE,102,9.0,20.0,84,0.00,,,0.00,0.000000,,2013-05-18 03:53:00,
2013-05-17 23:02:00,58.0,53.0,-100.00,ESE,102,9.0,20.0,84,0.00,,,0.00,0.000000,,2013-05-18 04:02:00,
2013-05-17 23:33:00,57.0,53.0,-100.00,ESE,102,9.0,14.0,87,0.00,,,0.00,0.000000,,2013-05-18 04:33:00,
2013-05-17 23:43:00,57.0,53.0,-100.00,ESE,102,9.0,14.0,87,0.00,,,0.00,0.000000,,2013-05-18 04:43:00,
2013-05-17 23:52:00,57.0,53.0,-100.00,ESE,102,9.0,14.0,87,0.00,,,0.00,0.000000,,2013-05-18 04:52:00,